Time;durP1;ratioP1;P1;durP2;ratioP2;P2;SDS_P1;SDS_P2;PMS_P1;PMS_P2;Temp;Humidity;BMP_temperature;BMP_pressure;BME280_temperature;BME280_humidity;BME280_pressure;Samples;Min_cycle;Max_cycle;Signal;HPM_P1;HPM_P2
2023/12/17 00:00:06;;;;;;;37.00;22.20;;;;;;;-143.21;79.10;75250.44;5031375;28;20223;-85
2023/12/17 00:02:33;;;;;;;32.47;18.70;;;;;;;-143.21;79.43;75252.41;5031310;28;20580;-84
2023/12/17 00:05:00;;;;;;;30.20;16.77;;;;;;;-143.21;79.16;75254.41;5032347;28;20207;-84
2023/12/17 00:07:28;;;;;;;27.37;16.00;;;;;;;-143.21;79.13;75260.34;5033569;28;20211;-84
2023/12/17 00:09:55;;;;;;;26.10;14.50;;;;;;;-143.21;79.03;75284.19;5031301;28;21337;-85
2023/12/17 00:12:21;;;;;;;30.13;17.77;;;;;;;-143.21;79.53;75298.06;5030979;28;20226;-86
2023/12/17 00:14:48;;;;;;;35.87;21.37;;;;;;;-143.21;79.79;75284.19;5032069;28;20233;-84
2023/12/17 00:17:15;;;;;;;35.33;21.00;;;;;;;-143.21;80.02;75290.13;5032193;28;20214;-86
2023/12/17 00:19:42;;;;;;;34.57;19.70;;;;;;;-143.21;80.48;75294.09;5031104;28;20202;-84
2023/12/17 00:22:09;;;;;;;26.60;15.70;;;;;;;-143.21;80.03;75306.00;5032029;28;20660;-83
2023/12/17 00:24:37;;;;;;;25.07;14.87;;;;;;;-143.21;79.88;75323.88;5028928;28;20199;-84
2023/12/17 00:27:05;;;;;;;29.73;17.30;;;;;;;-143.21;79.95;75349.69;5027900;28;20203;-85
2023/12/17 00:29:32;;;;;;;36.97;18.87;;;;;;;-143.21;80.34;75351.66;5032022;28;20201;-85
2023/12/17 00:31:58;;;;;;;35.67;18.07;;;;;;;-143.21;80.50;75371.50;5029474;28;20198;-83
2023/12/17 00:34:25;;;;;;;35.67;20.70;;;;;;;-143.21;80.90;75377.47;5026306;28;20640;-85
2023/12/17 00:36:52;;;;;;;42.93;24.73;;;;;;;-143.21;81.56;75387.41;5027769;28;20203;-83
2023/12/17 00:39:19;;;;;;;52.23;29.20;;;;;;;-143.21;82.81;75403.28;5030608;28;20210;-85
2023/12/17 00:41:47;;;;;;;51.43;27.10;;;;;;;-143.21;81.76;75419.16;5027463;28;20194;-88
2023/12/17 00:44:14;;;;;;;57.23;26.73;;;;;;;-143.21;81.31;75435.03;5029772;28;20199;-83
2023/12/17 00:46:40;;;;;;;43.87;23.90;;;;;;;-143.21;83.09;75452.91;5031933;28;20210;-91
2023/12/17 00:49:07;;;;;;;39.63;20.93;;;;;;;-143.21;83.17;75444.97;5032799;28;20267;-91
2023/12/17 00:51:35;;;;;;;35.37;18.33;;;;;;;-143.21;83.67;75454.88;5032262;28;20215;-91
2023/12/17 00:54:02;;;;;;;36.67;19.17;;;;;;;-143.21;83.46;75466.78;5032535;28;20557;-91
2023/12/17 00:56:29;;;;;;;24.73;14.27;;;;;;;-143.21;83.83;75472.75;5031142;28;20207;-91
2023/12/17 00:58:58;;;;;;;24.30;13.40;;;;;;;-143.21;84.21;75482.66;5030952;28;20221;-89
2023/12/17 01:01:26;;;;;;;25.73;13.57;;;;;;;-143.21;84.16;75462.81;5032115;28;20210;-89
2023/12/17 01:03:52;;;;;;;30.03;16.30;;;;;;;-143.21;84.09;75444.97;5030838;28;20202;-88
2023/12/17 01:06:19;;;;;;;34.93;16.77;;;;;;;-143.21;83.55;75437.03;5030313;28;20211;-87
2023/12/17 01:08:46;;;;;;;32.07;16.77;;;;;;;-143.21;83.94;75431.06;5028028;28;20660;-89
2023/12/17 01:11:13;;;;;;;33.70;17.93;;;;;;;-143.21;83.25;75423.13;5030184;28;20228;-88
2023/12/17 01:13:40;;;;;;;40.63;20.00;;;;;;;-143.21;82.44;75435.03;5030166;28;20669;-89
2023/12/17 01:16:08;;;;;;;37.07;19.73;;;;;;;-143.21;82.89;75476.72;5031723;28;20203;-88
2023/12/17 01:18:35;;;;;;;38.43;19.93;;;;;;;-143.21;83.12;75466.78;5035626;28;20282;-87
2023/12/17 01:21:02;;;;;;;38.87;20.27;;;;;;;-143.21;84.09;75474.72;5039182;28;20201;-89
2023/12/17 01:23:29;;;;;;;37.70;19.90;;;;;;;-143.21;84.73;75466.78;5034990;28;20203;-88
2023/12/17 01:25:56;;;;;;;37.00;19.90;;;;;;;-143.21;84.72;75460.84;5029622;28;20205;-88
2023/12/17 01:28:23;;;;;;;35.60;19.87;;;;;;;-143.21;84.31;75466.78;5027396;28;20511;-85
2023/12/17 01:30:49;;;;;;;38.63;19.33;;;;;;;-143.21;84.11;75486.63;5028654;28;20271;-86
2023/12/17 01:33:18;;;;;;;40.40;20.00;;;;;;;-143.21;84.58;75494.59;5033369;28;20206;-87
2023/12/17 01:35:44;;;;;;;39.23;20.47;;;;;;;-143.21;85.30;75486.63;5033524;28;20283;-87
2023/12/17 01:38:11;;;;;;;42.73;21.90;;;;;;;-143.21;85.48;75470.75;5033980;28;20574;-87
2023/12/17 01:40:39;;;;;;;42.43;24.07;;;;;;;-143.21;85.38;75456.88;5030104;28;20191;-86
2023/12/17 01:43:08;;;;;;;43.60;25.33;;;;;;;-143.21;84.57;75446.94;5029340;28;20237;-86
2023/12/17 01:45:35;;;;;;;38.43;20.37;;;;;;;-143.21;84.37;75442.97;5031574;28;20208;-86
2023/12/17 01:48:02;;;;;;;41.17;20.30;;;;;;;-143.21;83.94;75439.00;5028306;28;20196;-87
2023/12/17 01:50:31;;;;;;;36.93;19.73;;;;;;;-143.21;83.65;75425.09;5028595;28;20726;-87
2023/12/17 01:52:58;;;;;;;37.07;20.33;;;;;;;-143.21;82.49;75411.22;5029420;28;20882;-86
2023/12/17 01:55:27;;;;;;;40.27;20.93;;;;;;;-143.21;82.05;75407.25;5030290;28;20566;-86
2023/12/17 01:57:54;;;;;;;40.30;21.40;;;;;;;-143.21;81.60;75411.22;5028936;28;20210;-85
2023/12/17 02:00:21;;;;;;;36.63;19.47;;;;;;;-143.21;82.00;75411.22;5028617;28;20204;-85
2023/12/17 02:02:48;;;;;;;33.47;17.17;;;;;;;-143.21;81.39;75405.25;5029073;28;20202;-86
2023/12/17 02:05:15;;;;;;;32.70;16.17;;;;;;;-143.21;81.29;75395.34;5027004;28;20213;-86
2023/12/17 02:07:44;;;;;;;31.10;15.83;;;;;;;-143.21;81.00;75393.34;5022776;28;20205;-85
2023/12/17 02:10:11;;;;;;;29.03;14.27;;;;;;;-143.21;80.95;75391.38;5026776;28;20203;-86
2023/12/17 02:12:39;;;;;;;24.27;13.40;;;;;;;-143.21;81.27;75435.03;5026307;28;20209;-86
2023/12/17 02:15:07;;;;;;;38.27;15.63;;;;;;;-143.21;80.96;75458.84;5029685;28;20210;-87
2023/12/17 02:17:34;;;;;;;29.40;13.87;;;;;;;-143.21;82.07;75512.44;5031645;28;20210;-86
2023/12/17 02:20:01;;;;;;;25.63;13.10;;;;;;;-143.21;83.29;75520.38;5030834;28;20339;-86
2023/12/17 02:22:29;;;;;;;27.43;12.87;;;;;;;-143.21;83.55;75510.47;5028945;28;20203;-85
2023/12/17 02:24:58;;;;;;;30.27;14.73;;;;;;;-143.21;83.16;75502.53;5029024;28;20212;-86
2023/12/17 02:27:27;;;;;;;31.83;15.10;;;;;;;-143.21;82.93;75492.59;5029104;28;20211;-87
2023/12/17 02:29:55;;;;;;;33.33;14.43;;;;;;;-143.21;82.50;75490.63;5030155;28;20571;-88
2023/12/17 02:32:23;;;;;;;29.83;13.50;;;;;;;-143.21;83.05;75538.25;5028278;28;20225;-88
2023/12/17 02:34:50;;;;;;;24.87;12.17;;;;;;;-143.21;83.94;75546.19;5029111;28;20211;-87
2023/12/17 02:37:17;;;;;;;28.10;13.13;;;;;;;-143.21;84.91;75550.16;5028472;28;20202;-88
2023/12/17 02:39:45;;;;;;;26.90;12.93;;;;;;;-143.21;85.22;75522.38;5017657;28;20199;-84
2023/12/17 02:42:13;;;;;;;27.53;13.93;;;;;;;-143.21;84.79;75512.44;5028318;28;20203;-84
2023/12/17 02:44:40;;;;;;;24.53;11.50;;;;;;;-143.21;84.75;75502.53;5028380;28;20194;-84
2023/12/17 02:47:07;;;;;;;22.87;11.33;;;;;;;-143.21;84.18;75490.63;5028716;28;20548;-84
2023/12/17 02:49:35;;;;;;;19.87;11.13;;;;;;;-143.21;83.44;75480.69;5028640;28;20212;-84
2023/12/17 02:52:02;;;;;;;21.20;11.27;;;;;;;-143.21;83.29;75492.59;5029542;28;20698;-84
2023/12/17 02:54:29;;;;;;;22.47;11.73;;;;;;;-143.21;83.12;75480.69;5028296;28;20209;-84
2023/12/17 02:56:56;;;;;;;24.80;11.97;;;;;;;-143.21;82.92;75480.69;5030093;28;20204;-84
2023/12/17 02:59:25;;;;;;;20.47;11.03;;;;;;;-143.21;82.70;75474.72;5032081;28;20342;-83
2023/12/17 03:01:52;;;;;;;20.67;10.53;;;;;;;-143.21;81.76;75492.59;5033647;28;20211;-84
2023/12/17 03:04:19;;;;;;;19.57;10.63;;;;;;;-143.21;81.66;75498.56;5032059;28;20214;-84
2023/12/17 03:06:46;;;;;;;21.50;10.73;;;;;;;-143.21;82.13;75496.56;5032500;28;20202;-83
2023/12/17 03:09:12;;;;;;;17.77;10.07;;;;;;;-143.21;81.95;75482.66;5031640;28;20202;-83
2023/12/17 03:11:39;;;;;;;19.17;10.07;;;;;;;-143.21;81.21;75476.72;5032774;28;20294;-84
2023/12/17 03:14:06;;;;;;;21.67;11.13;;;;;;;-143.21;81.47;75470.75;5033329;28;20292;-84
2023/12/17 03:16:34;;;;;;;20.03;11.00;;;;;;;-143.21;80.57;75496.56;5032873;28;20304;-81
2023/12/17 03:19:01;;;;;;;21.60;12.00;;;;;;;-143.21;80.16;75526.34;5034115;28;20219;-80
2023/12/17 03:21:29;;;;;;;22.20;11.83;;;;;;;-143.21;80.80;75558.09;5031979;28;20197;-81
2023/12/17 03:23:56;;;;;;;20.80;11.30;;;;;;;-143.21;82.54;75572.00;5032899;28;20214;-81
2023/12/17 03:26:23;;;;;;;19.90;11.37;;;;;;;-143.21;83.67;75566.03;5031192;28;20523;-82
2023/12/17 03:28:49;;;;;;;23.17;11.83;;;;;;;-143.21;83.73;75550.16;5029659;28;20210;-82
2023/12/17 03:31:17;;;;;;;24.57;12.07;;;;;;;-143.21;83.79;75540.25;5030936;28;20244;-82
2023/12/17 03:33:47;;;;;;;21.63;12.10;;;;;;;-143.21;83.08;75514.44;5032163;28;20195;-82
2023/12/17 03:36:15;;;;;;;23.83;12.30;;;;;;;-143.21;82.41;75510.47;5031690;28;20198;-81
2023/12/17 03:38:43;;;;;;;20.70;11.80;;;;;;;-143.21;81.95;75500.53;5027453;28;20232;-82
2023/12/17 03:41:20;;;;;;;17.83;10.37;;;;;;;-143.21;81.57;75502.53;5023897;28;20207;-82
2023/12/17 03:43:48;;;;;;;17.33;10.37;;;;;;;-143.21;81.44;75506.50;5025190;28;20196;-81
2023/12/17 03:46:15;;;;;;;17.53;10.40;;;;;;;-143.21;81.59;75510.47;5030078;28;20655;-81
2023/12/17 03:48:41;;;;;;;20.13;11.50;;;;;;;-143.21;81.50;75496.56;5028162;28;20199;-82
2023/12/17 03:51:10;;;;;;;18.57;10.73;;;;;;;-143.21;81.23;75502.53;5030824;28;20227;-82
2023/12/17 03:53:36;;;;;;;21.47;12.10;;;;;;;-143.21;81.13;75506.50;5028144;28;20203;-82
2023/12/17 03:56:04;;;;;;;26.57;12.67;;;;;;;-143.21;81.11;75498.56;5031537;28;20219;-81
2023/12/17 03:58:30;;;;;;;22.10;12.90;;;;;;;-143.21;81.23;75502.53;5031990;28;20213;-84
2023/12/17 04:00:57;;;;;;;21.23;12.53;;;;;;;-143.21;81.31;75498.56;5030753;28;20771;-83
2023/12/17 04:03:24;;;;;;;20.90;12.47;;;;;;;-143.21;81.43;75510.47;5031225;28;20199;-85
2023/12/17 04:05:51;;;;;;;24.33;12.13;;;;;;;-143.21;80.73;75540.25;5031419;28;20653;-83
2023/12/17 04:08:19;;;;;;;18.23;10.73;;;;;;;-143.21;81.73;75572.00;5032805;28;20203;-83
2023/12/17 04:10:46;;;;;;;21.93;11.60;;;;;;;-143.21;82.70;75609.72;5030700;28;20210;-84
2023/12/17 04:13:13;;;;;;;20.33;11.97;;;;;;;-143.21;83.67;75611.69;5032907;28;20736;-85
2023/12/17 04:15:39;;;;;;;20.17;11.63;;;;;;;-143.21;84.40;75623.59;5034388;28;20680;-85
2023/12/17 04:18:06;;;;;;;20.00;11.43;;;;;;;-143.21;84.93;75597.81;5040990;28;20198;-85
2023/12/17 04:20:32;;;;;;;21.50;11.90;;;;;;;-143.21;84.70;75595.81;5038917;28;20206;-86
2023/12/17 04:22:59;;;;;;;21.60;11.33;;;;;;;-143.21;84.70;75575.97;5036546;28;20206;-85
2023/12/17 04:25:27;;;;;;;21.20;10.90;;;;;;;-143.21;84.14;75572.00;5037915;28;20203;-83
2023/12/17 04:27:54;;;;;;;20.00;11.40;;;;;;;-143.21;83.16;75564.06;5039507;28;20214;-83
2023/12/17 04:30:21;;;;;;;23.03;12.20;;;;;;;-143.21;82.81;75579.94;5045593;28;20661;-84
2023/12/17 04:32:48;;;;;;;21.83;12.57;;;;;;;-143.21;83.10;75575.97;5034385;28;20223;-84
2023/12/17 04:35:15;;;;;;;25.97;14.17;;;;;;;-143.21;82.73;75566.03;5037156;28;20202;-83
2023/12/17 04:37:42;;;;;;;29.27;15.30;;;;;;;-143.21;82.68;75558.09;5034448;28;20198;-83
2023/12/17 04:40:10;;;;;;;27.63;14.27;;;;;;;-143.21;82.79;75558.09;5040231;28;20198;-83
2023/12/17 04:42:39;;;;;;;27.23;14.17;;;;;;;-143.21;82.69;75558.09;5036166;28;20198;-84
2023/12/17 04:45:07;;;;;;;31.43;18.07;;;;;;;-143.21;82.20;75566.03;5037326;28;20592;-84
2023/12/17 04:47:34;;;;;;;40.93;24.13;;;;;;;-143.21;81.92;75597.81;5034705;28;20205;-83
2023/12/17 04:50:01;;;;;;;48.33;28.37;;;;;;;-143.21;83.51;75609.72;5039157;28;20208;-83
2023/12/17 04:52:28;;;;;;;41.53;23.90;;;;;;;-143.21;83.62;75633.53;5043220;28;20758;-84
2023/12/17 04:54:55;;;;;;;32.30;19.43;;;;;;;-143.21;83.66;75661.31;5032695;28;20211;-84
2023/12/17 04:57:22;;;;;;;27.50;16.70;;;;;;;-143.21;84.86;75669.25;5037807;28;20226;-84
2023/12/17 04:59:50;;;;;;;22.30;12.63;;;;;;;-143.21;84.99;75663.31;5038903;28;20268;-87
2023/12/17 05:02:17;;;;;;;22.23;12.03;;;;;;;-143.21;85.41;75641.47;5041692;28;20201;-86
2023/12/17 05:04:44;;;;;;;17.53;11.10;;;;;;;-143.21;85.29;75631.53;5039551;28;20209;-86
2023/12/17 05:07:11;;;;;;;24.97;12.67;;;;;;;-143.21;85.11;75623.59;5039901;28;20668;-86
2023/12/17 05:09:38;;;;;;;24.07;13.80;;;;;;;-143.21;84.62;75613.69;5036090;28;20202;-86
2023/12/17 05:12:06;;;;;;;25.87;14.60;;;;;;;-143.21;83.71;75605.75;5043464;28;20225;-87
2023/12/17 05:14:33;;;;;;;25.53;14.87;;;;;;;-143.21;83.47;75601.78;5031171;28;20241;-88
2023/12/17 05:17:01;;;;;;;23.53;14.10;;;;;;;-143.21;83.13;75607.72;5029641;28;20293;-87
2023/12/17 05:19:28;;;;;;;24.43;13.80;;;;;;;-143.21;82.81;75617.66;5030279;28;20238;-86
2023/12/17 05:21:55;;;;;;;28.73;14.23;;;;;;;-143.21;83.37;75639.50;5033922;28;20211;-87
2023/12/17 05:24:22;;;;;;;31.20;15.23;;;;;;;-143.21;82.94;75661.31;5037075;28;20227;-87
2023/12/17 05:26:59;;;;;;;33.43;16.67;;;;;;;-143.21;84.01;75681.19;5032730;28;20558;-87
2023/12/17 05:29:38;;;;;;;33.30;16.13;;;;;;;-143.21;83.97;75699.03;5034160;28;20234;-86
2023/12/17 05:32:11;;;;;;;24.37;13.07;;;;;;;-143.21;84.12;75722.88;5032721;28;20270;-86
2023/12/17 05:34:38;;;;;;;23.10;11.47;;;;;;;-143.21;84.71;75728.81;5032688;28;20688;-85
2023/12/17 05:37:05;;;;;;;20.07;10.90;;;;;;;-143.21;85.56;75742.72;5034630;28;20195;-84
2023/12/17 05:39:32;;;;;;;15.73;9.63;;;;;;;-143.21;85.97;75744.69;5032582;28;20266;-84
2023/12/17 05:41:59;;;;;;;19.20;10.80;;;;;;;-143.21;86.39;75742.72;5033518;28;20211;-84
2023/12/17 05:44:25;;;;;;;24.10;12.50;;;;;;;-143.21;86.30;75728.81;5032181;28;20260;-82
2023/12/17 05:46:52;;;;;;;28.67;14.60;;;;;;;-143.21;85.78;75710.94;5028905;28;20201;-82
2023/12/17 05:49:20;;;;;;;37.23;17.50;;;;;;;-143.21;85.43;75695.06;5029494;28;20522;-84
2023/12/17 05:51:49;;;;;;;31.77;17.17;;;;;;;-143.21;84.97;75677.22;5028390;28;20317;-85
2023/12/17 05:54:15;;;;;;;48.73;29.40;;;;;;;-143.21;84.04;75665.28;5028985;28;20202;-84
2023/12/17 05:56:43;;;;;;;52.53;31.13;;;;;;;-143.21;83.75;75657.34;5028671;28;21488;-85
2023/12/17 05:59:10;;;;;;;41.37;23.90;;;;;;;-143.21;83.44;75657.34;5030443;28;20229;-85
2023/12/17 06:01:37;;;;;;;37.63;22.27;;;;;;;-143.21;83.65;75653.38;5028398;28;20205;-83
2023/12/17 06:04:04;;;;;;;31.80;18.90;;;;;;;-143.21;83.41;75649.41;5026452;28;20325;-84
2023/12/17 06:06:32;;;;;;;35.60;19.10;;;;;;;-143.21;83.19;75643.47;5029549;28;20217;-84
2023/12/17 06:08:59;;;;;;;39.27;21.03;;;;;;;-143.21;82.26;75671.25;5029068;28;20194;-85
2023/12/17 06:11:26;;;;;;;41.97;21.63;;;;;;;-143.21;82.33;75699.03;5029380;28;20198;-83
2023/12/17 06:13:53;;;;;;;56.63;31.30;;;;;;;-143.21;84.20;75716.91;5027069;28;20226;-86
2023/12/17 06:16:20;;;;;;;51.27;26.87;;;;;;;-143.21;85.10;75714.91;5024769;28;20203;-86
2023/12/17 06:18:48;;;;;;;46.80;26.37;;;;;;;-143.21;85.79;75699.03;5030242;28;20703;-83
2023/12/17 06:21:22;;;;;;;42.10;22.87;;;;;;;-143.21;85.59;75691.09;5030088;28;20206;-87
2023/12/17 06:23:51;;;;;;;40.07;20.73;;;;;;;-143.21;85.89;75669.25;5029182;28;20206;-84
2023/12/17 06:26:19;;;;;;;33.53;18.53;;;;;;;-143.21;84.59;75645.44;5028876;28;20235;-84
2023/12/17 06:28:46;;;;;;;32.03;18.27;;;;;;;-143.21;84.09;75645.44;5028194;28;20661;-84
2023/12/17 06:31:13;;;;;;;33.37;18.67;;;;;;;-143.21;83.62;75639.50;5032369;28;20568;-86
2023/12/17 06:33:40;;;;;;;41.43;21.47;;;;;;;-143.21;82.76;75629.56;5036530;28;20222;-86
2023/12/17 06:36:08;;;;;;;39.67;21.57;;;;;;;-143.21;82.43;75623.59;5034568;28;20199;-87
2023/12/17 06:38:34;;;;;;;42.03;22.03;;;;;;;-143.21;81.99;75627.56;5033578;28;20665;-86
2023/12/17 06:41:03;;;;;;;36.03;20.87;;;;;;;-143.21;81.69;75637.50;5033544;28;20275;-85
2023/12/17 06:43:30;;;;;;;38.10;19.73;;;;;;;-143.21;82.26;75661.31;5031013;28;20229;-84
2023/12/17 06:45:57;;;;;;;39.27;21.67;;;;;;;-143.21;82.62;75675.22;5032554;28;20208;-84
2023/12/17 06:48:24;;;;;;;33.73;20.07;;;;;;;-143.21;83.27;75679.19;5031205;28;20308;-86
2023/12/17 06:50:51;;;;;;;37.83;20.10;;;;;;;-143.21;82.96;75675.22;5026632;28;20199;-82
2023/12/17 06:53:18;;;;;;;44.70;23.40;;;;;;;-143.21;82.49;75683.16;5031080;28;20293;-83
2023/12/17 06:55:45;;;;;;;50.23;24.17;;;;;;;-143.21;83.43;75708.97;5031407;28;20194;-75
2023/12/17 06:58:13;;;;;;;42.50;23.20;;;;;;;-143.21;84.15;75712.94;5027216;28;20203;-75
2023/12/17 07:00:40;;;;;;;43.60;23.27;;;;;;;-143.21;84.86;75708.97;5023153;28;20688;-76
2023/12/17 07:03:07;;;;;;;45.37;22.90;;;;;;;-143.21;85.17;75710.94;5029132;28;20207;-75
2023/12/17 07:05:34;;;;;;;43.63;23.80;;;;;;;-143.21;84.67;75695.06;5031976;28;20203;-75
2023/12/17 07:08:01;;;;;;;37.60;22.10;;;;;;;-143.21;84.62;75697.06;5028721;28;20203;-76
2023/12/17 07:10:28;;;;;;;37.07;19.73;;;;;;;-143.21;85.09;75687.13;5018760;28;20214;-75
2023/12/17 07:12:54;;;;;;;34.37;20.13;;;;;;;-143.21;84.88;75655.38;5026099;28;20270;-76
2023/12/17 07:15:23;;;;;;;26.40;15.33;;;;;;;-143.21;84.78;75653.38;5027833;28;20203;-77
2023/12/17 07:17:51;;;;;;;25.80;14.70;;;;;;;-143.21;84.09;75643.47;5022113;28;20662;-77
2023/12/17 07:20:18;;;;;;;29.43;15.37;;;;;;;-143.21;83.94;75643.47;5027617;28;20211;-76
2023/12/17 07:22:45;;;;;;;23.10;13.53;;;;;;;-143.21;83.56;75641.47;5024973;28;20211;-75
2023/12/17 07:25:14;;;;;;;21.43;12.73;;;;;;;-143.21;83.86;75655.38;5028548;28;20220;-76
2023/12/17 07:27:41;;;;;;;21.60;12.60;;;;;;;-143.21;83.99;75635.53;5026263;28;20191;-76
2023/12/17 07:30:09;;;;;;;27.83;14.50;;;;;;;-143.21;83.57;75633.53;5027382;28;20255;-78
2023/12/17 07:32:37;;;;;;;33.83;16.63;;;;;;;-143.21;83.55;75621.63;5024112;28;20217;-76
2023/12/17 07:35:07;;;;;;;33.50;18.50;;;;;;;-143.21;83.44;75605.75;5018133;28;20208;-75
2023/12/17 07:37:34;;;;;;;38.77;20.57;;;;;;;-143.21;83.21;75601.78;5027687;28;20673;-75
2023/12/17 07:40:01;;;;;;;43.07;24.50;;;;;;;-143.21;83.81;75597.81;5027279;28;20194;-75
2023/12/17 07:42:27;;;;;;;49.77;23.10;;;;;;;-143.21;84.02;75605.75;5025377;28;20207;-75
2023/12/17 07:44:54;;;;;;;39.53;22.67;;;;;;;-143.21;84.75;75595.81;5025039;28;20522;-76
2023/12/17 07:47:21;;;;;;;26.83;15.67;;;;;;;-143.21;84.47;75573.97;5025596;28;20225;-75
2023/12/17 07:49:51;;;;;;;22.07;11.97;;;;;;;-143.21;83.79;75566.03;5023548;28;20204;-75
2023/12/17 07:52:18;;;;;;;22.97;12.03;;;;;;;-143.21;83.59;75554.13;5024655;28;20322;-75
2023/12/17 07:54:46;;;;;;;19.17;11.30;;;;;;;-143.21;83.55;75548.19;5020793;28;20640;-75
2023/12/17 07:57:13;;;;;;;26.83;14.03;;;;;;;-143.21;82.63;75542.22;5025322;28;20213;-79
2023/12/17 07:59:40;;;;;;;22.03;12.67;;;;;;;-143.21;83.46;75516.41;5022326;28;20268;-76
2023/12/17 08:02:07;;;;;;;22.63;13.03;;;;;;;-143.21;82.88;75516.41;5023449;28;20197;-76
2023/12/17 08:04:35;;;;;;;19.80;12.10;;;;;;;-143.21;82.68;75520.38;5022999;28;20205;-76
2023/12/17 08:07:04;;;;;;;19.13;11.50;;;;;;;-143.21;82.60;75500.53;5020416;28;20209;-75
2023/12/17 08:09:35;;;;;;;22.43;13.20;;;;;;;-143.21;81.50;75490.63;5023374;28;20218;-76
2023/12/17 08:12:01;;;;;;;20.57;12.17;;;;;;;-143.21;81.41;75490.63;5021269;28;20191;-76
2023/12/17 08:14:29;;;;;;;19.47;11.57;;;;;;;-143.21;81.37;75502.53;5024890;28;20245;-75
2023/12/17 08:16:57;;;;;;;22.70;12.77;;;;;;;-143.21;81.54;75508.47;5022531;28;20735;-76
2023/12/17 08:19:24;;;;;;;20.07;11.93;;;;;;;-143.21;81.68;75508.47;5023497;28;20209;-75
2023/12/17 08:21:51;;;;;;;23.63;13.67;;;;;;;-143.21;81.79;75516.41;5024040;28;20256;-77
2023/12/17 08:24:19;;;;;;;23.80;14.10;;;;;;;-143.21;81.62;75516.41;5019899;28;20196;-76
2023/12/17 08:26:46;;;;;;;21.60;13.37;;;;;;;-143.21;81.65;75522.38;5024978;28;20527;-76
2023/12/17 08:29:13;;;;;;;22.70;13.57;;;;;;;-143.21;82.19;75538.25;5026705;28;20697;-75
2023/12/17 08:31:43;;;;;;;21.77;12.67;;;;;;;-143.21;82.64;75550.16;5027724;28;20210;-76
2023/12/17 08:34:12;;;;;;;24.50;13.70;;;;;;;-143.21;82.80;75552.16;5026401;28;20213;-84
2023/12/17 08:36:41;;;;;;;20.67;11.77;;;;;;;-143.21;82.75;75524.34;5023137;28;20209;-75
2023/12/17 08:39:08;;;;;;;29.03;14.60;;;;;;;-143.21;81.92;75526.34;5022592;28;20275;-75
2023/12/17 08:41:36;;;;;;;22.47;11.83;;;;;;;-143.21;81.82;75540.25;5023654;28;20214;-75
2023/12/17 08:44:03;;;;;;;27.63;15.03;;;;;;;-143.21;81.52;75540.25;5029248;28;20194;-74
2023/12/17 08:46:30;;;;;;;29.57;15.87;;;;;;;-143.21;81.38;75530.31;5027881;28;20716;-76
2023/12/17 08:48:56;;;;;;;27.07;13.97;;;;;;;-143.21;81.17;75506.50;5022097;28;20204;-76
2023/12/17 08:51:23;;;;;;;21.57;11.83;;;;;;;-143.21;80.15;75510.47;5023960;28;20204;-74
2023/12/17 08:53:50;;;;;;;19.10;11.00;;;;;;;-143.21;81.05;75524.34;5024634;28;20240;-74
2023/12/17 08:56:17;;;;;;;18.00;10.77;;;;;;;-143.21;81.21;75518.41;5023339;28;20211;-74
2023/12/17 08:58:46;;;;;;;18.73;10.80;;;;;;;-143.21;81.51;75526.34;5022888;28;20199;-75
2023/12/17 09:01:13;;;;;;;18.73;10.30;;;;;;;-143.21;81.63;75506.50;5022166;28;20668;-75
2023/12/17 09:03:40;;;;;;;18.50;9.90;;;;;;;-143.21;80.98;75494.59;5022198;28;20201;-74
2023/12/17 09:06:08;;;;;;;23.87;13.20;;;;;;;-143.21;80.89;75484.66;5024148;28;20205;-74
2023/12/17 09:08:34;;;;;;;20.10;11.43;;;;;;;-143.21;79.76;75486.63;5027065;28;20198;-89
2023/12/17 09:11:01;;;;;;;22.90;11.83;;;;;;;-143.21;80.18;75476.72;5031838;28;20249;-83
2023/12/17 09:13:28;;;;;;;23.13;12.23;;;;;;;-143.21;80.26;75468.78;5028913;28;20257;-83
2023/12/17 09:15:56;;;;;;;27.50;13.00;;;;;;;-143.21;79.61;75452.91;5032360;28;20623;-87
2023/12/17 09:18:23;;;;;;;21.37;11.47;;;;;;;-143.21;79.62;75458.84;5033274;28;20865;-79
2023/12/17 09:20:50;;;;;;;20.17;11.63;;;;;;;-143.21;79.11;75437.03;5028750;28;20225;-82
2023/12/17 09:23:17;;;;;;;18.97;10.47;;;;;;;-143.21;78.50;75458.84;5028823;28;20202;-80
2023/12/17 09:25:43;;;;;;;16.97;10.73;;;;;;;-143.21;79.06;75468.78;5029467;28;20278;-82
2023/12/17 09:28:13;;;;;;;19.17;11.17;;;;;;;-143.21;79.28;75466.78;5031073;28;20194;-82
2023/12/17 09:30:40;;;;;;;20.37;12.07;;;;;;;-143.21;79.23;75464.81;5028890;28;20227;-81
2023/12/17 09:33:10;;;;;;;21.60;13.43;;;;;;;-143.21;79.31;75484.66;5028200;28;20254;-80
2023/12/17 09:35:38;;;;;;;23.00;13.53;;;;;;;-143.21;79.39;75482.66;5027387;28;20259;-81
2023/12/17 09:38:07;;;;;;;23.80;13.03;;;;;;;-143.21;80.08;75478.69;5035055;28;20211;-80
2023/12/17 09:40:34;;;;;;;31.33;17.60;;;;;;;-143.21;80.37;75494.59;5034932;28;20219;-80
2023/12/17 09:43:01;;;;;;;37.17;21.67;;;;;;;-143.21;81.18;75478.69;5028086;28;20201;-80
2023/12/17 09:45:28;;;;;;;30.53;15.33;;;;;;;-143.21;80.83;75468.78;5027715;28;20213;-82
2023/12/17 09:47:55;;;;;;;20.50;11.97;;;;;;;-143.21;79.95;75466.78;5028700;28;20256;-80
2023/12/17 09:50:27;;;;;;;23.63;14.33;;;;;;;-143.21;80.09;75466.78;5029739;28;20204;-80
2023/12/17 09:52:55;;;;;;;26.30;14.10;;;;;;;-143.21;80.19;75448.94;5028299;28;20238;-80
2023/12/17 09:55:22;;;;;;;24.47;13.93;;;;;;;-143.21;80.16;75429.06;5027976;28;20250;-82
2023/12/17 09:57:48;;;;;;;23.67;13.90;;;;;;;-143.21;79.43;75446.94;5027177;28;20207;-81
2023/12/17 10:00:16;;;;;;;25.40;14.47;;;;;;;-143.21;79.00;75439.00;5026954;28;20212;-82
2023/12/17 10:02:43;;;;;;;29.93;15.53;;;;;;;-143.21;78.44;75444.97;5029081;28;20220;-83
2023/12/17 10:05:09;;;;;;;32.63;18.47;;;;;;;-143.21;78.95;75435.03;5027863;28;20211;-81
2023/12/17 10:07:38;;;;;;;35.23;18.13;;;;;;;-143.21;78.82;75419.16;5028721;28;20659;-81
2023/12/17 10:10:06;;;;;;;34.43;17.70;;;;;;;-143.21;78.51;75419.16;5025497;28;20214;-85
2023/12/17 10:12:33;;;;;;;36.37;17.33;;;;;;;-143.21;81.06;75407.25;5031083;28;20236;-82
2023/12/17 10:15:00;;;;;;;35.97;19.13;;;;;;;-143.21;84.35;75375.47;5026517;28;20623;-80
2023/12/17 10:17:26;;;;;;;25.20;15.17;;;;;;;-143.21;81.60;75353.66;5020308;28;20210;-80
2023/12/17 10:19:53;;;;;;;25.10;12.53;;;;;;;-143.21;80.29;75335.78;5027666;28;20293;-81
2023/12/17 10:22:20;;;;;;;27.00;14.67;;;;;;;-143.21;78.69;75333.81;5028584;28;20665;-82
2023/12/17 10:24:50;;;;;;;27.57;15.10;;;;;;;-143.21;78.51;75337.78;5034916;28;20201;-80
2023/12/17 10:27:18;;;;;;;32.37;15.87;;;;;;;-143.21;79.26;75315.94;5034184;28;20208;-80
2023/12/17 10:29:49;;;;;;;32.13;17.50;;;;;;;-143.21;79.10;75300.06;5036925;28;20606;-83
2023/12/17 10:32:21;;;;;;;30.47;18.67;;;;;;;-143.21;78.36;75309.97;5027529;28;20208;-81
2023/12/17 10:34:49;;;;;;;18.37;11.07;;;;;;;-143.21;76.87;75308.00;5039602;28;20260;-76
2023/12/17 10:37:19;;;;;;;19.73;11.90;;;;;;;-143.21;76.19;75343.72;5040174;28;20691;-83
2023/12/17 10:39:50;;;;;;;20.60;12.20;;;;;;;-143.21;77.73;75381.44;5034540;28;20292;-82
2023/12/17 10:42:18;;;;;;;22.73;13.10;;;;;;;-143.21;78.63;75381.44;5035346;28;20236;-83
2023/12/17 10:44:47;;;;;;;24.03;12.27;;;;;;;-143.21;78.00;75387.41;5031507;28;20221;-82
2023/12/17 10:47:18;;;;;;;21.40;12.13;;;;;;;-143.21;78.03;75379.44;5040231;28;20233;-82
2023/12/17 10:49:45;;;;;;;27.37;13.30;;;;;;;-143.21;78.34;75387.41;5033123;28;20284;-83
2023/12/17 10:52:12;;;;;;;25.17;14.00;;;;;;;-143.21;78.96;75397.31;5032963;28;20213;-81
2023/12/17 10:54:39;;;;;;;21.73;11.97;;;;;;;-143.21;78.58;75391.38;5030219;28;20304;-82
2023/12/17 10:57:12;;;;;;;21.33;11.33;;;;;;;-143.21;78.42;75391.38;5031667;28;20202;-82
2023/12/17 10:59:40;;;;;;;27.07;13.83;;;;;;;-143.21;78.20;75399.31;5034954;28;20206;-82
2023/12/17 11:02:10;;;;;;;26.60;14.50;;;;;;;-143.21;79.30;75433.03;5040250;28;20258;-80